createdAt,value
2023-05-23T00:00:19.324Z,100073.00
2023-05-23T00:03:42.356Z,100076.47
2023-05-23T00:07:04.317Z,100072.88
2023-05-23T00:10:28.302Z,100068.28
2023-05-23T00:13:50.344Z,100062.91
2023-05-23T00:17:13.399Z,100059.22
2023-05-23T00:20:35.345Z,100060.72
2023-05-23T00:23:58.326Z,100054.28
2023-05-23T00:27:20.354Z,100056.34
2023-05-23T00:30:48.355Z,100050.03
2023-05-23T00:34:10.364Z,100034.50
2023-05-23T00:37:33.311Z,100038.84
2023-05-23T00:40:56.356Z,100039.44
2023-05-23T00:44:19.370Z,100034.63
2023-05-23T00:47:43.360Z,100029.34
2023-05-23T00:51:05.355Z,100031.63
2023-05-23T00:54:29.334Z,100022.44
2023-05-23T00:57:52.385Z,100022.75
2023-05-23T01:01:16.407Z,100016.63
2023-05-23T01:04:38.341Z,100008.78
2023-05-23T01:08:02.360Z,100009.88
2023-05-23T01:11:30.362Z,100013.75
2023-05-23T01:14:58.390Z,100006.28
2023-05-23T01:18:29.357Z,100005.47
2023-05-23T01:21:52.370Z,100009.50
2023-05-23T01:25:22.324Z,100005.13
2023-05-23T01:28:49.371Z,100009.44
2023-05-23T01:32:12.423Z,100014.66
2023-05-23T01:35:37.359Z,100008.25
2023-05-23T01:38:59.336Z,100006.88
2023-05-23T01:42:24.359Z,100007.41
2023-05-23T01:45:41.154Z,100008.50
2023-05-23T01:48:59.469Z,100012.31
2023-05-23T01:52:21.380Z,100010.66
2023-05-23T01:55:43.435Z,100006.94
2023-05-23T01:59:05.378Z,100005.13
2023-05-23T02:02:28.509Z,100009.22
2023-05-23T02:05:50.356Z,100010.03
2023-05-23T02:09:12.414Z,100011.22
2023-05-23T02:12:35.360Z,100008.53
2023-05-23T02:15:58.410Z,100000.34
2023-05-23T02:19:20.400Z,100010.03
2023-05-23T02:22:42.413Z,100013.13
2023-05-23T02:26:04.366Z,100017.59
2023-05-23T02:29:27.423Z,100013.72
2023-05-23T02:32:49.451Z,100015.72
2023-05-23T02:36:14.438Z,100017.19
2023-05-23T02:39:38.374Z,100026.16
2023-05-23T02:43:00.461Z,100018.31
2023-05-23T02:46:18.041Z,100025.91
2023-05-23T02:49:35.454Z,100035.63
2023-05-23T02:52:57.399Z,100034.53
2023-05-23T02:56:21.442Z,100045.75
2023-05-23T02:59:44.409Z,100049.56
2023-05-23T03:03:06.496Z,100024.34
2023-05-23T03:06:30.432Z,100040.44
2023-05-23T03:09:52.435Z,100054.47
2023-05-23T03:13:14.368Z,100065.75
2023-05-23T03:16:37.471Z,100068.13
2023-05-23T03:20:00.356Z,100064.25
2023-05-23T03:23:24.412Z,100066.50
2023-05-23T03:26:47.396Z,100066.53
2023-05-23T03:30:10.434Z,100076.59
2023-05-23T03:33:32.404Z,100074.63
2023-05-23T03:36:55.418Z,100076.81
2023-05-23T03:40:18.407Z,100083.63
2023-05-23T03:43:41.412Z,100082.38
2023-05-23T03:46:57.021Z,100092.63
2023-05-23T03:50:14.422Z,100093.06
2023-05-23T03:53:37.393Z,100096.50
2023-05-23T03:56:59.417Z,100095.25
2023-05-23T04:00:22.400Z,100101.13
2023-05-23T04:03:48.541Z,100117.69
2023-05-23T04:07:13.422Z,100115.97
2023-05-23T04:10:35.418Z,100124.34
2023-05-23T04:13:57.435Z,100123.38
2023-05-23T04:17:20.401Z,100134.56
2023-05-23T04:20:43.442Z,100137.69
2023-05-23T04:24:06.547Z,100138.19
2023-05-23T04:27:30.424Z,100142.50
2023-05-23T04:30:53.475Z,100143.09
2023-05-23T04:34:18.435Z,100143.38
2023-05-23T04:37:41.445Z,100144.16
2023-05-23T04:41:05.539Z,100146.09
2023-05-23T04:44:45.480Z,100153.97
2023-05-23T04:48:07.218Z,100158.69
2023-05-23T04:51:29.483Z,100160.88
2023-05-23T04:55:02.466Z,100172.47
2023-05-23T04:58:25.515Z,100175.34
2023-05-23T05:01:53.482Z,100174.91
2023-05-23T05:05:15.468Z,100182.25
2023-05-23T05:08:39.615Z,100184.75
2023-05-23T05:12:02.511Z,100183.72
2023-05-23T05:15:25.502Z,100187.25
2023-05-23T05:18:48.504Z,100190.03
2023-05-23T05:22:11.511Z,100193.72
2023-05-23T05:25:35.475Z,100205.06
2023-05-23T05:28:58.463Z,100211.50
2023-05-23T05:32:21.536Z,100223.47
2023-05-23T05:35:46.555Z,100230.25
2023-05-23T05:39:10.509Z,100234.75
2023-05-23T05:42:33.463Z,100241.19
2023-05-23T05:45:55.517Z,100247.16
2023-05-23T05:49:12.592Z,100249.09
2023-05-23T05:52:30.515Z,100248.22
2023-05-23T05:55:54.461Z,100245.00
2023-05-23T05:59:17.545Z,100251.31
2023-05-23T06:02:40.554Z,100253.41
2023-05-23T06:06:07.636Z,100260.78
2023-05-23T06:09:29.518Z,100263.56
2023-05-23T06:12:51.514Z,100270.91
2023-05-23T06:16:15.607Z,100257.56
2023-05-23T06:19:38.529Z,100268.69
2023-05-23T06:23:01.511Z,100272.56
2023-05-23T06:26:24.475Z,100278.84
2023-05-23T06:29:46.518Z,100284.00
2023-05-23T06:33:12.571Z,100288.59
2023-05-23T06:36:35.545Z,100287.50
2023-05-23T06:39:57.485Z,100288.91
2023-05-23T06:43:19.542Z,100299.50
2023-05-23T06:46:42.491Z,100296.53
2023-05-23T06:50:05.525Z,100299.50
2023-05-23T06:53:28.546Z,100301.41
2023-05-23T06:56:51.496Z,100307.34
2023-05-23T07:00:15.752Z,100311.97
2023-05-23T07:03:53.525Z,100315.78
2023-05-23T07:07:15.532Z,100319.38
2023-05-23T07:10:38.637Z,100325.81
2023-05-23T07:14:17.530Z,100328.31
2023-05-23T07:17:40.511Z,100333.50
2023-05-23T07:21:03.543Z,100334.59
2023-05-23T07:24:26.502Z,100344.88
2023-05-23T07:27:50.557Z,100343.53
2023-05-23T07:31:17.618Z,100357.31
2023-05-23T07:34:44.578Z,100360.59
2023-05-23T07:38:07.996Z,100367.63
2023-05-23T07:41:30.586Z,100367.63
2023-05-23T07:44:53.546Z,100373.59
2023-05-23T07:48:15.567Z,100372.53
2023-05-23T07:51:31.116Z,100373.06
2023-05-23T07:54:49.600Z,100383.88
2023-05-23T07:58:12.528Z,100393.63
2023-05-23T08:01:37.612Z,100398.78
2023-05-23T08:05:05.552Z,100403.34
2023-05-23T08:08:28.547Z,100407.97
2023-05-23T08:11:51.580Z,100410.66
2023-05-23T08:15:14.548Z,100416.31
2023-05-23T08:18:41.579Z,100424.72
2023-05-23T08:22:03.549Z,100424.72
2023-05-23T08:25:27.586Z,100429.34
2023-05-23T08:28:49.549Z,100429.34
2023-05-23T08:32:12.782Z,100425.56
2023-05-23T08:35:37.770Z,100426.94
2023-05-23T08:39:02.581Z,100429.88
2023-05-23T08:42:30.574Z,100434.75
2023-05-23T08:45:56.629Z,100433.13
2023-05-23T08:49:22.772Z,100430.97
2023-05-23T08:52:38.186Z,100432.59
2023-05-23T08:55:56.598Z,100433.41
2023-05-23T08:59:27.595Z,100435.28
2023-05-23T09:02:50.666Z,100439.06
2023-05-23T09:06:30.563Z,100451.25
2023-05-23T09:09:55.587Z,100445.81
2023-05-23T09:13:18.582Z,100454.19
2023-05-23T09:16:51.602Z,100458.53
2023-05-23T09:20:15.568Z,100461.25
2023-05-23T09:23:47.595Z,100458.81
2023-05-23T09:27:11.565Z,100459.63
2023-05-23T09:30:33.567Z,100460.19
2023-05-23T09:34:03.569Z,100454.25
2023-05-23T09:37:27.559Z,100469.16
2023-05-23T09:40:50.586Z,100463.44
2023-05-23T09:44:13.577Z,100467.81
2023-05-23T09:47:35.625Z,100470.19
2023-05-23T09:51:02.194Z,100473.72
2023-05-23T09:54:26.591Z,100472.66
2023-05-23T09:57:53.629Z,100476.44
2023-05-23T10:01:16.721Z,100484.03
2023-05-23T10:04:39.612Z,100481.84
2023-05-23T10:08:01.620Z,100485.41
2023-05-23T10:11:30.584Z,100482.41
2023-05-23T10:14:53.608Z,100482.69
2023-05-23T10:18:15.620Z,100501.31
2023-05-23T10:21:58.607Z,100493.44
2023-05-23T10:25:22.650Z,100505.34
2023-05-23T10:28:48.575Z,100501.28
2023-05-23T10:32:10.648Z,100522.94
2023-05-23T10:35:39.634Z,100523.44
2023-05-23T10:39:05.626Z,100525.03
2023-05-23T10:42:45.756Z,100520.47
2023-05-23T10:46:07.717Z,100523.97
2023-05-23T10:49:29.652Z,100525.50
2023-05-23T10:52:54.612Z,100522.31
2023-05-23T10:56:16.645Z,100522.94
2023-05-23T10:59:39.598Z,100522.06
2023-05-23T11:03:05.738Z,100520.16
2023-05-23T11:06:46.674Z,100525.50
2023-05-23T11:10:34.648Z,100530.59
2023-05-23T11:14:10.580Z,100533.06
2023-05-23T11:17:33.698Z,100534.97
2023-05-23T11:20:55.608Z,100542.06
2023-05-23T11:24:17.636Z,100535.25
2023-05-23T11:27:43.612Z,100538.41
2023-05-23T11:31:05.658Z,100538.44
2023-05-23T11:34:29.583Z,100539.78
2023-05-23T11:37:54.658Z,100529.84
2023-05-23T11:41:11.634Z,100535.84
2023-05-23T11:44:33.637Z,100542.69
2023-05-23T11:47:56.680Z,100546.41
2023-05-23T11:51:18.643Z,100546.22
2023-05-23T11:54:41.717Z,100546.69
2023-05-23T11:57:57.335Z,100548.63
2023-05-23T12:01:15.691Z,100546.63
2023-05-23T12:04:39.643Z,100548.25
2023-05-23T12:08:02.654Z,100539.84
2023-05-23T12:11:25.629Z,100540.97
2023-05-23T12:14:41.710Z,100541.72
2023-05-23T12:18:05.344Z,100548.22
2023-05-23T12:21:27.672Z,100547.69
2023-05-23T12:24:50.656Z,100553.63
2023-05-23T12:28:24.659Z,100557.38
2023-05-23T12:31:48.698Z,100565.53
2023-05-23T12:35:11.650Z,100559.53
2023-05-23T12:38:34.648Z,100569.25
2023-05-23T12:41:56.692Z,100572.53
2023-05-23T12:45:19.634Z,100572.22
2023-05-23T12:48:41.803Z,100566.06
2023-05-23T12:52:04.652Z,100563.97
2023-05-23T12:55:27.677Z,100566.75
2023-05-23T12:58:43.341Z,100564.84
2023-05-23T13:02:00.748Z,100557.75
2023-05-23T13:05:22.651Z,100551.97
2023-05-23T13:08:39.784Z,100568.00
2023-05-23T13:12:02.669Z,100566.16
2023-05-23T13:15:25.682Z,100562.91
2023-05-23T13:18:48.654Z,100576.72
2023-05-23T13:22:12.693Z,100569.75
2023-05-23T13:25:35.651Z,100571.94
2023-05-23T13:28:57.688Z,100572.81
2023-05-23T13:32:19.728Z,100570.94
2023-05-23T13:35:43.058Z,100567.38
2023-05-23T13:39:06.737Z,100569.00
2023-05-23T13:42:29.720Z,100568.63
2023-05-23T13:45:52.745Z,100568.69
2023-05-23T13:49:15.675Z,100567.78
2023-05-23T13:52:38.288Z,100569.66
2023-05-23T13:56:02.657Z,100569.66
2023-05-23T13:59:28.731Z,100565.63
2023-05-23T14:02:51.767Z,100557.94
2023-05-23T14:06:13.691Z,100566.94
2023-05-23T14:09:36.732Z,100560.09
2023-05-23T14:12:58.693Z,100567.94
2023-05-23T14:16:21.764Z,100571.16
2023-05-23T14:19:44.722Z,100573.31
2023-05-23T14:23:07.713Z,100562.50
2023-05-23T14:26:31.668Z,100574.19
2023-05-23T14:29:54.698Z,100563.66
2023-05-23T14:33:16.749Z,100566.69
2023-05-23T14:36:39.717Z,100566.66
2023-05-23T14:40:01.729Z,100566.66
2023-05-23T14:43:25.692Z,100567.44
2023-05-23T14:46:47.735Z,100576.66
2023-05-23T14:50:10.690Z,100567.22
2023-05-23T14:53:30.739Z,100563.78
2023-05-23T14:56:53.400Z,100564.25
2023-05-23T15:00:16.720Z,100571.50
2023-05-23T15:03:39.726Z,100574.78
2023-05-23T15:07:02.746Z,100579.59
2023-05-23T15:10:25.729Z,100591.34
2023-05-23T15:13:48.723Z,100598.47
2023-05-23T15:17:15.695Z,100608.91
2023-05-23T15:20:37.811Z,100612.88
2023-05-23T15:23:59.855Z,100612.09
2023-05-23T15:27:21.726Z,100611.03
2023-05-23T15:30:44.783Z,100617.00
2023-05-23T15:34:08.761Z,100620.97
2023-05-23T15:37:31.732Z,100626.75
2023-05-23T15:40:56.743Z,100628.00
2023-05-23T15:44:19.810Z,100624.97
2023-05-23T15:47:41.791Z,100630.84
2023-05-23T15:51:03.776Z,100633.69
2023-05-23T15:54:26.718Z,100632.63
2023-05-23T15:57:48.755Z,100627.69
2023-05-23T16:01:06.175Z,100635.72
2023-05-23T16:04:23.854Z,100637.63
2023-05-23T16:07:45.710Z,100641.31
2023-05-23T16:11:07.741Z,100647.00
2023-05-23T16:14:29.733Z,100648.75
2023-05-23T16:17:51.795Z,100643.72
2023-05-23T16:21:13.760Z,100644.41
2023-05-23T16:24:35.724Z,100642.91
2023-05-23T16:27:58.787Z,100650.41
2023-05-23T16:31:21.772Z,100650.00
2023-05-23T16:34:47.011Z,100650.22
2023-05-23T16:38:13.757Z,100662.47
2023-05-23T16:41:35.793Z,100658.38
2023-05-23T16:44:57.757Z,100663.34
2023-05-23T16:48:19.781Z,100660.19
2023-05-23T16:51:43.913Z,100669.91
2023-05-23T16:55:06.802Z,100663.69
2023-05-23T16:58:29.764Z,100660.25
2023-05-23T17:01:51.875Z,100671.16
2023-05-23T17:05:14.752Z,100665.31
2023-05-23T17:08:36.782Z,100664.88
2023-05-23T17:12:00.776Z,100673.47
2023-05-23T17:15:22.741Z,100678.72
2023-05-23T17:22:12.816Z,100689.47
2023-05-23T17:25:35.743Z,100698.22
2023-05-23T17:28:57.788Z,100697.16
2023-05-23T17:32:19.773Z,100695.88
2023-05-23T17:35:43.080Z,100701.81
2023-05-23T17:39:05.739Z,100701.34
2023-05-23T17:42:27.794Z,100705.34
2023-05-23T17:45:49.734Z,100699.09
2023-05-23T17:49:12.793Z,100696.97
2023-05-23T17:52:34.790Z,100703.41
2023-05-23T17:55:56.916Z,100697.19
2023-05-23T17:59:18.755Z,100702.13
2023-05-23T18:02:41.811Z,100706.50
2023-05-23T18:06:03.762Z,100701.63
2023-05-23T18:09:25.776Z,100713.75
2023-05-23T18:12:47.790Z,100717.00
2023-05-23T18:16:09.802Z,100718.44
2023-05-23T18:19:31.863Z,100716.78
2023-05-23T18:22:53.800Z,100727.91
2023-05-23T18:26:17.773Z,100735.00
2023-05-23T18:29:40.959Z,100729.09
2023-05-23T18:33:02.835Z,100738.09
2023-05-23T18:36:24.808Z,100727.59
2023-05-23T18:39:46.770Z,100752.25
2023-05-23T18:43:10.803Z,100760.31
2023-05-23T18:46:33.830Z,100772.13
2023-05-23T18:49:57.797Z,100781.38
2023-05-23T18:53:19.817Z,100793.91
2023-05-23T18:56:43.787Z,100792.38
2023-05-23T19:00:05.815Z,100797.50
2023-05-23T19:03:27.849Z,100807.88
2023-05-23T19:06:49.811Z,100797.16
2023-05-23T19:10:12.825Z,100803.84
2023-05-23T19:13:34.942Z,100815.59
2023-05-23T19:16:56.789Z,100809.72
2023-05-23T19:20:20.794Z,100813.75
2023-05-23T19:23:42.822Z,100817.28
2023-05-23T19:27:05.798Z,100805.69
2023-05-23T19:30:27.824Z,100820.69
2023-05-23T19:33:50.785Z,100815.44
2023-05-23T19:37:12.827Z,100827.00
2023-05-23T19:40:35.796Z,100828.53
2023-05-23T19:43:58.895Z,100831.84
2023-05-23T19:47:21.811Z,100833.06
2023-05-23T19:50:46.828Z,100843.41
2023-05-23T19:54:09.951Z,100840.75
2023-05-23T19:57:33.830Z,100847.41
2023-05-23T20:00:56.806Z,100864.13
2023-05-23T20:04:20.917Z,100861.81
2023-05-23T20:07:44.860Z,100869.53
2023-05-23T20:11:09.854Z,100879.75
2023-05-23T20:14:32.808Z,100874.81
2023-05-23T20:17:54.905Z,100878.31
2023-05-23T20:21:17.791Z,100887.19
2023-05-23T20:24:39.871Z,100892.50
2023-05-23T20:28:03.787Z,100885.50
2023-05-23T20:31:26.862Z,100887.44
2023-05-23T20:34:50.787Z,100893.00
2023-05-23T20:38:13.834Z,100888.56
2023-05-23T20:41:37.827Z,100892.66
2023-05-23T20:44:59.830Z,100901.06
2023-05-23T20:48:22.876Z,100890.38
2023-05-23T20:51:46.835Z,100868.78
2023-05-23T20:55:10.954Z,100877.75
2023-05-23T20:58:33.805Z,100887.06
2023-05-23T21:01:55.873Z,100886.78
2023-05-23T21:05:20.825Z,100893.28
2023-05-23T21:08:42.886Z,100892.84
2023-05-23T21:12:05.798Z,100893.56
2023-05-23T21:15:27.873Z,100894.38
2023-05-23T21:18:50.926Z,100896.50
2023-05-23T21:22:15.861Z,100901.81
2023-05-23T21:25:39.864Z,100904.44
2023-05-23T21:29:02.824Z,100904.13
2023-05-23T21:32:26.839Z,100905.81
2023-05-23T21:35:48.875Z,100907.72
2023-05-23T21:39:13.883Z,100917.25
2023-05-23T21:42:35.839Z,100921.03
2023-05-23T21:45:59.917Z,100922.78
2023-05-23T21:49:22.869Z,100923.88
2023-05-23T21:52:45.867Z,100919.47
2023-05-23T21:56:08.870Z,100921.31
2023-05-23T21:59:30.877Z,100932.28
2023-05-23T22:02:46.927Z,100928.00
2023-05-23T22:06:10.869Z,100939.91
2023-05-23T22:09:32.889Z,100933.38
2023-05-23T22:12:54.820Z,100938.97
2023-05-23T22:16:16.975Z,100947.94
2023-05-23T22:19:41.028Z,100941.22
2023-05-23T22:23:03.870Z,100955.88
2023-05-23T22:26:19.519Z,100960.66
2023-05-23T22:29:36.902Z,100949.22
2023-05-23T22:32:58.948Z,100946.69
2023-05-23T22:36:20.919Z,100944.63
2023-05-23T22:39:42.870Z,100948.03
2023-05-23T22:43:05.019Z,100951.53
2023-05-23T22:46:26.955Z,100938.63
2023-05-23T22:49:51.922Z,100936.50
2023-05-23T22:53:13.897Z,100949.59
2023-05-23T22:56:35.908Z,100950.81
2023-05-23T22:59:57.895Z,100946.47
2023-05-23T23:03:22.998Z,100949.16
2023-05-23T23:06:44.960Z,100956.25
2023-05-23T23:10:06.932Z,100947.19
2023-05-23T23:13:28.886Z,100963.47
2023-05-23T23:16:53.970Z,100961.09
2023-05-23T23:20:15.922Z,100961.69
2023-05-23T23:23:39.032Z,100964.25
2023-05-23T23:26:54.541Z,100969.81
2023-05-23T23:30:11.907Z,100964.13
2023-05-23T23:33:33.905Z,100961.19
2023-05-23T23:36:55.923Z,100966.72
2023-05-23T23:40:19.903Z,100960.78
2023-05-23T23:43:42.926Z,100955.63
2023-05-23T23:47:04.894Z,100960.97
2023-05-23T23:50:26.915Z,100960.22
2023-05-23T23:53:50.341Z,100962.63
2023-05-23T23:57:21.982Z,100952.13
